Islington, United Kingdom
Current Conditions -  °F | °C
As of 12:20 AM on Wednesday 26 Nov 2014 (Local Time) from EGLC Reporting Station
Moderate Rain Moderate Rain  
Wind Chill: 45°   Ceiling: 3000
Heat Index: 48°   Visibility: 6mi
Dew Point: 45°   Wind: 8mph
Humidity: 87%   Direction: 80°E
Pressure: 29.97"   Gusts: NA
Location:  51.54°N, 0.1°W
Report Text: EGLC 260020Z AUTO 08007KT 9000 RA SCT022/// OVC030/// 09/07 Q1015
Loading
Personal Weather Stations






























Interactive Weather Map New forecast layout! Learn more

10-Day Weather Forecast

Advertisements
Track Severe Weather on mobile